Time;durP1;ratioP1;P1;durP2;ratioP2;P2;SDS_P1;SDS_P2;PMS_P1;PMS_P2;Temp;Humidity;BMP_temperature;BMP_pressure;BME280_temperature;BME280_humidity;BME280_pressure;Samples;Min_cycle;Max_cycle;Signal;HPM_P1;HPM_P2
2022/04/27 00:00:29;;;;;;;11.98;5.18;;;;;;;6.40;82.84;102375.13;5014227;28;20033;-47
2022/04/27 00:02:56;;;;;;;9.75;4.57;;;;;;;6.36;83.00;102377.13;5014233;28;20447;-45
2022/04/27 00:05:22;;;;;;;11.15;4.72;;;;;;;6.26;83.71;102378.78;4996492;28;20029;-45
2022/04/27 00:07:48;;;;;;;6.47;4.50;;;;;;;6.22;84.57;102367.94;5014812;28;20486;-46
2022/04/27 00:10:13;;;;;;;9.05;4.80;;;;;;;6.31;84.58;102369.78;4997049;28;20022;-46
2022/04/27 00:12:39;;;;;;;11.07;4.50;;;;;;;6.45;84.14;102376.41;5014397;28;20033;-48
2022/04/27 00:15:05;;;;;;;11.73;4.43;;;;;;;6.49;83.46;102372.66;5014717;28;20061;-49
2022/04/27 00:17:31;;;;;;;13.27;4.70;;;;;;;6.54;83.54;102369.72;5014441;28;20074;-46
2022/04/27 00:19:56;;;;;;;8.00;4.43;;;;;;;6.58;83.25;102375.44;5015773;28;20119;-47
2022/04/27 00:22:22;;;;;;;8.82;4.82;;;;;;;6.55;83.37;102371.34;5015276;28;20025;-48
2022/04/27 00:24:48;;;;;;;10.95;4.63;;;;;;;6.53;83.46;102366.34;5015409;28;20036;-48
2022/04/27 00:27:13;;;;;;;11.80;5.03;;;;;;;6.49;83.04;102370.09;5015077;28;20105;-48
2022/04/27 00:29:38;;;;;;;12.77;6.50;;;;;;;6.50;82.07;102370.91;5015044;28;20481;-48
2022/04/27 00:32:04;;;;;;;16.75;8.00;;;;;;;6.37;82.25;102365.91;5014977;28;20037;-45
2022/04/27 00:34:29;;;;;;;13.48;7.30;;;;;;;6.28;81.86;102372.59;5014607;28;20036;-47
2022/04/27 00:36:54;;;;;;;8.55;5.53;;;;;;;6.22;81.71;102369.69;5014605;28;20044;-46
2022/04/27 00:39:20;;;;;;;9.98;5.38;;;;;;;6.09;81.95;102368.06;5014174;28;20026;-46
2022/04/27 00:42:00;;;;;;;8.15;5.00;;;;;;;6.13;82.82;102372.94;5014584;28;20507;-47
2022/04/27 00:44:30;;;;;;;7.70;5.30;;;;;;;6.12;83.65;102373.91;5014896;28;20021;-47
2022/04/27 00:46:56;;;;;;;8.75;4.82;;;;;;;6.18;83.25;102369.09;5015056;28;20026;-47
2022/04/27 00:49:21;;;;;;;12.93;5.28;;;;;;;6.39;82.70;102368.34;5014570;28;20064;-47
2022/04/27 00:51:48;;;;;;;10.23;4.90;;;;;;;6.54;82.16;102372.31;5014456;28;20050;-46
2022/04/27 00:54:14;;;;;;;8.93;5.50;;;;;;;6.46;82.00;102380.59;5014428;28;20036;-47
2022/04/27 00:56:42;;;;;;;9.52;5.30;;;;;;;6.45;82.27;102378.16;4996667;28;20540;-48
2022/04/27 00:59:07;;;;;;;10.27;5.13;;;;;;;6.44;82.55;102381.66;5014273;28;20469;-47
2022/04/27 01:01:33;;;;;;;9.63;4.63;;;;;;;6.46;82.61;102384.94;5014193;28;20026;-47
2022/04/27 01:03:58;;;;;;;10.43;5.15;;;;;;;6.58;82.14;102383.97;5014175;28;20036;-47
2022/04/27 01:06:24;;;;;;;10.85;5.18;;;;;;;6.75;82.00;102386.00;5014181;28;20061;-46
2022/04/27 01:08:50;;;;;;;9.93;5.43;;;;;;;6.84;81.46;102379.31;5014524;28;20045;-47
2022/04/27 01:11:15;;;;;;;11.88;5.32;;;;;;;6.73;82.04;102377.63;4996363;28;20033;-47
2022/04/27 01:13:41;;;;;;;10.57;5.47;;;;;;;6.57;81.96;102384.91;5013943;28;20477;-46
2022/04/27 01:16:07;;;;;;;10.15;5.18;;;;;;;6.53;82.95;102378.34;5014524;28;20052;-46
2022/04/27 01:18:32;;;;;;;10.50;5.28;;;;;;;6.51;82.91;102383.63;4996213;28;20381;-47
2022/04/27 01:20:58;;;;;;;10.05;5.30;;;;;;;6.42;83.51;102386.94;5013832;28;20516;-46
2022/04/27 01:23:23;;;;;;;9.00;5.13;;;;;;;6.49;84.11;102385.50;4996376;28;20080;-47
2022/04/27 01:25:54;;;;;;;9.15;5.47;;;;;;;6.51;83.37;102383.63;5013836;28;20025;-47
2022/04/27 01:28:22;;;;;;;10.35;5.20;;;;;;;6.66;83.19;102383.34;5013139;28;20394;-47
2022/04/27 01:30:54;;;;;;;8.55;4.90;;;;;;;6.59;82.84;102384.75;5013746;28;20109;-47
2022/04/27 01:33:19;;;;;;;9.85;5.00;;;;;;;6.69;82.63;102378.78;5013979;28;20033;-46
2022/04/27 01:35:44;;;;;;;10.43;5.13;;;;;;;6.48;83.10;102385.63;5014204;28;20025;-47
2022/04/27 01:38:09;;;;;;;10.77;4.85;;;;;;;6.33;83.72;102382.53;5013638;28;20025;-47
2022/04/27 01:40:35;;;;;;;8.27;5.10;;;;;;;6.39;84.34;102386.31;5014038;28;20026;-47
2022/04/27 01:43:00;;;;;;;10.95;4.60;;;;;;;6.38;83.65;102390.66;5013550;28;20026;-46
2022/04/27 01:45:25;;;;;;;11.13;5.00;;;;;;;6.31;84.16;102392.91;5014042;28;20030;-47
2022/04/27 01:47:53;;;;;;;6.93;4.80;;;;;;;6.36;83.73;102394.28;5013851;28;20036;-47
2022/04/27 01:50:19;;;;;;;9.73;4.75;;;;;;;6.33;83.92;102395.34;5013747;28;20061;-47
2022/04/27 01:55:28;;;;;;;6.68;4.80;;;;;;;6.33;84.12;102403.06;5014231;28;20052;-47
2022/04/27 01:57:54;;;;;;;6.60;4.72;;;;;;;6.17;83.91;102402.59;5013448;28;20484;-47
2022/04/27 02:00:21;;;;;;;10.75;5.40;;;;;;;6.29;84.05;102399.09;5013573;28;20041;-47
2022/04/27 02:02:46;;;;;;;8.90;5.13;;;;;;;6.16;84.17;102401.78;5013613;28;20034;-47
2022/04/27 02:05:11;;;;;;;9.45;5.45;;;;;;;6.20;84.29;102410.88;5013818;28;20026;-47
2022/04/27 02:07:37;;;;;;;10.13;6.00;;;;;;;6.08;84.06;102414.41;5013293;28;20026;-50
2022/04/27 02:10:02;;;;;;;11.85;6.05;;;;;;;6.03;84.07;102414.72;5013525;28;20513;-46
2022/04/27 02:12:27;;;;;;;15.13;7.65;;;;;;;6.03;84.32;102416.50;5013267;28;20037;-46
2022/04/27 02:14:53;;;;;;;19.83;9.00;;;;;;;6.10;83.74;102417.66;5013052;28;20042;-47
2022/04/27 02:17:19;;;;;;;17.60;8.77;;;;;;;6.12;83.95;102420.91;5013409;28;20401;-47
2022/04/27 02:19:44;;;;;;;16.05;9.05;;;;;;;6.17;83.04;102413.69;5013665;28;20556;-46
2022/04/27 02:22:09;;;;;;;18.77;9.32;;;;;;;6.12;82.99;102418.34;5013397;28;20021;-47
2022/04/27 02:24:34;;;;;;;22.23;8.80;;;;;;;5.94;84.07;102417.19;5012174;28;20029;-47
2022/04/27 02:27:00;;;;;;;17.75;9.20;;;;;;;5.90;85.21;102414.03;5013335;28;20022;-47
2022/04/27 02:29:25;;;;;;;17.05;8.98;;;;;;;5.91;84.74;102419.97;5013580;28;20049;-48
2022/04/27 02:31:51;;;;;;;17.92;9.55;;;;;;;5.94;85.03;102418.00;5013331;28;20026;-47
2022/04/27 02:34:16;;;;;;;17.10;8.65;;;;;;;5.94;84.43;102419.75;5013811;28;20029;-47
2022/04/27 02:36:42;;;;;;;13.43;7.85;;;;;;;5.86;84.74;102421.09;5013261;28;20045;-47
2022/04/27 02:39:07;;;;;;;17.77;8.98;;;;;;;5.79;84.79;102427.66;5013541;28;20030;-48
2022/04/27 02:41:32;;;;;;;14.90;8.45;;;;;;;5.71;84.75;102422.25;4999448;28;20022;-47
2022/04/27 02:43:58;;;;;;;20.00;9.60;;;;;;;5.62;85.37;102434.03;5017319;28;20366;-47
2022/04/27 02:46:23;;;;;;;21.85;10.38;;;;;;;5.51;85.81;102428.06;5017022;28;20077;-48
2022/04/27 02:54:17;;;;;;;25.88;10.30;;;;;;;5.58;86.32;102434.34;5017217;28;20095;-47
2022/04/27 02:56:42;;;;;;;19.60;10.23;;;;;;;5.72;86.18;102441.03;4999532;28;20090;-48
2022/04/27 02:59:08;;;;;;;18.73;10.05;;;;;;;5.56;85.15;102429.34;4999294;28;20072;-47
2022/04/27 03:01:34;;;;;;;18.92;9.45;;;;;;;5.56;85.23;102428.53;5016700;28;20030;-47
2022/04/27 03:03:59;;;;;;;19.95;9.25;;;;;;;5.52;84.79;102438.19;5016964;28;20026;-47
2022/04/27 03:06:25;;;;;;;18.05;8.90;;;;;;;5.47;85.30;102436.91;5016605;28;20080;-47
2022/04/27 03:08:50;;;;;;;14.63;8.57;;;;;;;5.39;84.68;102438.28;5016559;28;20030;-47
2022/04/27 03:11:15;;;;;;;18.27;8.32;;;;;;;5.45;85.01;102439.59;4999109;28;20026;-47
2022/04/27 03:13:40;;;;;;;17.48;8.63;;;;;;;5.54;85.53;102438.09;5016598;28;20103;-46
2022/04/27 03:16:06;;;;;;;16.05;8.63;;;;;;;5.62;85.32;102433.22;4999059;28;20369;-48
2022/04/27 03:18:31;;;;;;;13.80;7.78;;;;;;;5.48;84.91;102444.50;5016436;28;20029;-47
2022/04/27 03:20:56;;;;;;;16.30;7.53;;;;;;;5.37;86.07;102445.25;4998746;28;20022;-48
2022/04/27 03:23:22;;;;;;;12.98;7.05;;;;;;;5.33;85.64;102438.75;5015408;28;20076;-46
2022/04/27 03:25:47;;;;;;;14.13;7.32;;;;;;;5.49;86.28;102446.13;5014861;28;20105;-45
2022/04/27 03:28:12;;;;;;;15.65;7.53;;;;;;;5.48;85.69;102446.25;5015019;28;20116;-45
2022/04/27 03:30:38;;;;;;;15.38;7.35;;;;;;;5.53;86.19;102446.72;5015044;28;20061;-46
2022/04/27 03:33:03;;;;;;;14.48;7.85;;;;;;;5.45;85.79;102446.47;5015030;28;20037;-46
2022/04/27 03:35:29;;;;;;;18.15;8.60;;;;;;;5.48;84.94;102438.56;5014922;28;20551;-46
2022/04/27 03:37:55;;;;;;;20.25;8.57;;;;;;;5.44;85.14;102440.53;5014428;28;20460;-46
2022/04/27 03:40:21;;;;;;;17.17;8.88;;;;;;;5.48;85.42;102444.50;4995876;28;20045;-45
2022/04/27 03:42:47;;;;;;;16.60;9.07;;;;;;;5.55;85.12;102444.84;5014854;28;20057;-47
2022/04/27 03:45:13;;;;;;;18.88;9.88;;;;;;;5.57;85.30;102438.69;5013906;28;20662;-44
2022/04/27 03:47:38;;;;;;;19.35;9.38;;;;;;;5.58;84.98;102442.06;5014763;28;20025;-46
2022/04/27 03:50:04;;;;;;;22.05;10.18;;;;;;;5.64;84.95;102439.88;5014517;28;20026;-46
2022/04/27 03:52:30;;;;;;;18.08;8.60;;;;;;;5.66;84.71;102434.59;5013987;28;20025;-48
2022/04/27 03:55:00;;;;;;;19.02;8.63;;;;;;;5.57;85.61;102437.88;5015739;28;20025;-47
2022/04/27 03:57:25;;;;;;;15.93;8.60;;;;;;;5.56;85.53;102444.75;5015945;28;20477;-48
2022/04/27 03:59:50;;;;;;;13.43;7.85;;;;;;;5.42;85.58;102438.06;5015427;28;20041;-46
2022/04/27 04:02:16;;;;;;;15.07;8.00;;;;;;;5.61;84.84;102446.94;5015146;28;20030;-47
2022/04/27 04:04:41;;;;;;;17.65;8.40;;;;;;;5.63;86.20;102450.22;5015537;28;20104;-48
2022/04/27 04:07:06;;;;;;;17.40;8.80;;;;;;;5.65;85.49;102448.38;5015435;28;20030;-47
2022/04/27 04:09:31;;;;;;;16.77;8.50;;;;;;;5.83;85.20;102446.19;5015737;28;20030;-47
2022/04/27 04:11:57;;;;;;;18.30;8.18;;;;;;;5.91;83.61;102446.44;4997883;28;20646;-47
2022/04/27 04:14:22;;;;;;;15.48;7.25;;;;;;;5.77;83.01;102449.22;5015220;28;20137;-47
2022/04/27 04:16:47;;;;;;;13.10;6.95;;;;;;;5.54;83.50;102446.59;5015537;28;20034;-51
2022/04/27 04:19:13;;;;;;;11.88;6.60;;;;;;;5.35;84.05;102454.84;5015274;28;20461;-47
2022/04/27 04:21:38;;;;;;;11.15;6.55;;;;;;;5.24;84.27;102454.78;5015157;28;20396;-47
2022/04/27 04:24:04;;;;;;;13.77;5.95;;;;;;;5.27;84.11;102461.44;5015479;28;20064;-48
2022/04/27 04:29:13;;;;;;;14.20;6.55;;;;;;;5.23;83.09;102462.59;5015108;28;20104;-47
2022/04/27 04:31:38;;;;;;;10.38;6.20;;;;;;;5.23;83.74;102476.22;5015618;28;20014;-47
2022/04/27 04:34:04;;;;;;;12.65;5.95;;;;;;;5.30;83.01;102471.47;5015547;28;20022;-48
2022/04/27 04:36:30;;;;;;;11.10;6.05;;;;;;;5.29;83.09;102468.06;5015233;28;20022;-47
2022/04/27 04:38:55;;;;;;;10.63;5.63;;;;;;;5.35;82.98;102466.81;5014911;28;20504;-48
2022/04/27 04:41:21;;;;;;;11.68;6.45;;;;;;;5.30;83.00;102477.41;5014835;28;20032;-48
2022/04/27 04:43:46;;;;;;;11.52;6.07;;;;;;;5.45;83.07;102477.22;5015414;28;20026;-48
2022/04/27 04:46:12;;;;;;;10.25;6.65;;;;;;;5.26;83.43;102483.69;5015092;28;20014;-48
2022/04/27 04:48:37;;;;;;;11.30;6.57;;;;;;;5.48;82.97;102477.00;5014779;28;20076;-48
2022/04/27 04:51:02;;;;;;;10.18;6.20;;;;;;;5.47;82.43;102480.47;5014664;28;20025;-48
2022/04/27 04:53:28;;;;;;;8.75;5.65;;;;;;;5.50;81.80;102490.53;5014739;28;20113;-48
2022/04/27 04:55:53;;;;;;;13.25;6.47;;;;;;;5.48;82.49;102489.84;5015426;28;20026;-48
2022/04/27 04:58:18;;;;;;;11.40;6.38;;;;;;;5.48;82.53;102488.09;5015018;28;20041;-46
2022/04/27 05:00:45;;;;;;;12.90;6.53;;;;;;;5.48;82.67;102493.22;5014808;28;20022;-47
2022/04/27 05:03:11;;;;;;;9.85;6.88;;;;;;;5.53;81.64;102498.81;5014408;28;20018;-47
2022/04/27 05:05:40;;;;;;;11.73;6.45;;;;;;;5.45;82.41;102496.00;5014495;28;20362;-52
2022/04/27 05:08:07;;;;;;;12.90;6.38;;;;;;;5.45;82.46;102511.38;4996814;28;20041;-47
2022/04/27 05:10:33;;;;;;;13.80;6.70;;;;;;;5.56;81.74;102501.16;5014332;28;20022;-47
2022/04/27 05:12:59;;;;;;;11.65;6.22;;;;;;;5.65;80.83;102507.38;4996627;28;20416;-47
2022/04/27 05:15:24;;;;;;;10.00;6.07;;;;;;;5.71;80.86;102513.81;5014113;28;20050;-47
2022/04/27 05:17:49;;;;;;;10.82;6.22;;;;;;;5.75;81.28;102512.63;5014236;28;20117;-46
2022/04/27 05:20:14;;;;;;;13.23;6.65;;;;;;;6.01;80.16;102515.88;5014088;28;20025;-47
2022/04/27 05:22:40;;;;;;;10.38;6.30;;;;;;;6.06;79.82;102521.47;5014307;28;20109;-47
2022/04/27 05:25:08;;;;;;;14.80;7.15;;;;;;;6.08;80.05;102519.63;5014299;28;20021;-47
2022/04/27 05:27:34;;;;;;;11.68;6.60;;;;;;;6.11;79.81;102529.66;5014336;28;20053;-48
2022/04/27 05:32:44;;;;;;;10.55;6.50;;;;;;;6.24;79.10;102537.25;5014569;28;20041;-46
2022/04/27 05:35:09;;;;;;;13.50;6.50;;;;;;;6.15;78.92;102541.31;4996174;28;20022;-47
2022/04/27 05:37:36;;;;;;;10.18;6.50;;;;;;;6.15;77.93;102545.66;5014038;28;20381;-46
2022/04/27 05:40:01;;;;;;;10.18;6.63;;;;;;;6.35;77.75;102551.84;5013601;28;20123;-47
2022/04/27 05:42:26;;;;;;;12.00;6.78;;;;;;;6.59;75.48;102554.31;5013788;28;20085;-47
2022/04/27 05:44:51;;;;;;;10.32;6.70;;;;;;;6.67;75.92;102550.22;5014133;28;20034;-47
2022/04/27 05:47:17;;;;;;;10.60;6.53;;;;;;;6.69;76.67;102553.50;5013918;28;20025;-47
2022/04/27 05:49:42;;;;;;;16.60;7.03;;;;;;;6.70;77.09;102549.16;5013694;28;20114;-45
2022/04/27 05:52:07;;;;;;;10.63;6.55;;;;;;;8.39;72.92;102557.03;5012388;28;20032;-48
2022/04/27 05:54:32;;;;;;;10.02;5.97;;;;;;;13.04;56.59;102557.41;5013821;28;20037;-47
2022/04/27 05:56:58;;;;;;;9.88;5.75;;;;;;;15.14;49.65;102554.63;5013546;28;20033;-46
2022/04/27 05:59:23;;;;;;;8.07;5.50;;;;;;;16.29;45.46;102551.75;4996516;28;20148;-46
2022/04/27 06:01:48;;;;;;;11.60;5.50;;;;;;;16.45;44.72;102554.94;5013486;28;20036;-45
2022/04/27 06:04:13;;;;;;;8.82;5.25;;;;;;;18.10;42.13;102561.84;5012933;28;20030;-45
2022/04/27 06:06:39;;;;;;;8.38;4.93;;;;;;;18.12;41.44;102559.84;5013566;28;20018;-45
2022/04/27 06:09:04;;;;;;;9.32;4.95;;;;;;;18.37;40.33;102557.53;5013803;28;20453;-45
2022/04/27 06:11:30;;;;;;;9.25;4.88;;;;;;;18.91;39.46;102561.94;5012006;28;20018;-45
2022/04/27 06:13:55;;;;;;;9.32;4.32;;;;;;;19.01;38.87;102556.31;4995746;28;20056;-45
2022/04/27 06:16:23;;;;;;;7.90;4.35;;;;;;;19.42;38.74;102559.75;5016563;28;20050;-45
2022/04/27 06:18:48;;;;;;;10.68;4.40;;;;;;;19.82;36.98;102557.91;5016119;28;20030;-45
2022/04/27 06:21:14;;;;;;;9.32;4.20;;;;;;;19.77;37.68;102565.59;5016229;28;20084;-44
2022/04/27 06:23:39;;;;;;;7.65;3.78;;;;;;;18.96;38.84;102565.78;5016211;28;20064;-45
2022/04/27 06:26:06;;;;;;;7.43;3.67;;;;;;;20.90;35.53;102570.41;5016435;28;20025;-46
2022/04/27 06:28:32;;;;;;;8.45;3.30;;;;;;;21.51;33.63;102571.56;5016401;28;20042;-45
2022/04/27 06:30:57;;;;;;;8.07;3.28;;;;;;;20.82;34.85;102573.28;5016190;28;20025;-45
2022/04/27 06:33:22;;;;;;;7.85;3.40;;;;;;;20.24;35.77;102574.94;5016752;28;20096;-45
2022/04/27 06:35:48;;;;;;;7.47;2.83;;;;;;;21.11;34.72;102577.13;5015904;28;20388;-46
2022/04/27 06:38:13;;;;;;;8.50;3.08;;;;;;;20.10;36.40;102577.81;5017656;28;20040;-46
2022/04/27 06:40:38;;;;;;;9.38;3.47;;;;;;;14.72;47.64;102580.06;5016905;28;20029;-45
2022/04/27 06:43:03;;;;;;;8.50;3.30;;;;;;;12.60;53.23;102586.09;5016908;28;20026;-46
2022/04/27 06:45:29;;;;;;;9.00;3.30;;;;;;;11.68;57.17;102585.72;5017377;28;20034;-45
2022/04/27 06:47:54;;;;;;;6.55;3.20;;;;;;;11.34;58.13;102589.97;5017464;28;20022;-45
2022/04/27 06:50:20;;;;;;;8.77;3.63;;;;;;;11.03;58.92;102601.44;5017648;28;20032;-46
2022/04/27 06:52:46;;;;;;;7.70;3.30;;;;;;;10.85;59.34;102595.44;5017066;28;20076;-46
2022/04/27 06:55:11;;;;;;;8.93;3.35;;;;;;;10.79;59.96;102593.44;5016606;28;20021;-46
2022/04/27 06:57:37;;;;;;;8.65;3.50;;;;;;;11.71;56.86;102602.75;4998223;28;20021;-47
2022/04/27 07:00:03;;;;;;;7.63;3.20;;;;;;;11.68;56.93;102596.09;5016584;28;20052;-46
2022/04/27 07:02:29;;;;;;;7.43;3.30;;;;;;;14.86;50.93;102602.78;5016527;28;20063;-48
2022/04/27 07:04:59;;;;;;;9.30;3.28;;;;;;;16.35;44.35;102603.22;4999106;28;20461;-45
2022/04/27 07:07:26;;;;;;;9.85;3.78;;;;;;;13.23;51.38;102603.00;5016676;28;20050;-45
2022/04/27 07:09:51;;;;;;;11.55;3.35;;;;;;;12.34;54.90;102617.25;4999309;28;20030;-46
2022/04/27 07:12:16;;;;;;;7.43;3.50;;;;;;;12.25;55.98;102610.41;5016546;28;20429;-48
2022/04/27 07:14:42;;;;;;;7.05;3.45;;;;;;;12.30;55.27;102621.13;5016208;28;20045;-47
2022/04/27 07:17:07;;;;;;;11.35;3.50;;;;;;;12.12;56.79;102613.41;4998764;28;20211;-46
2022/04/27 07:19:32;;;;;;;8.38;3.30;;;;;;;12.25;56.84;102624.19;4998572;28;20060;-45
2022/04/27 07:21:58;;;;;;;9.15;3.33;;;;;;;13.05;54.22;102618.69;5016452;28;20116;-46
2022/04/27 07:24:24;;;;;;;20.20;4.25;;;;;;;13.88;52.83;102625.63;5017080;28;20033;-46
2022/04/27 07:26:49;;;;;;;11.40;3.63;;;;;;;14.10;51.73;102626.75;4997595;28;20325;-44
2022/04/27 07:29:14;;;;;;;9.13;3.42;;;;;;;13.79;52.85;102632.63;5015478;28;20026;-47
2022/04/27 07:31:39;;;;;;;11.13;4.20;;;;;;;16.12;47.70;102632.00;5015515;28;20453;-46
2022/04/27 07:34:05;;;;;;;8.95;3.70;;;;;;;15.64;47.31;102628.78;5015709;28;20101;-45
2022/04/27 07:36:30;;;;;;;8.82;3.50;;;;;;;15.09;48.40;102635.84;4997695;28;20041;-45
2022/04/27 07:38:56;;;;;;;8.15;3.65;;;;;;;14.78;49.79;102643.63;5015912;28;20022;-46
2022/04/27 07:41:21;;;;;;;7.53;3.60;;;;;;;15.50;47.45;102644.19;5015768;28;20033;-47
2022/04/27 07:43:46;;;;;;;9.20;3.58;;;;;;;18.82;42.18;102640.91;5015539;28;20465;-46
2022/04/27 07:46:12;;;;;;;7.88;3.30;;;;;;;20.68;36.67;102625.88;5016012;28;20032;-45
2022/04/27 07:48:37;;;;;;;7.43;3.08;;;;;;;19.50;39.17;102633.75;5015548;28;20030;-46
2022/04/27 07:51:04;;;;;;;7.57;2.92;;;;;;;21.23;34.92;102635.06;4998210;28;20034;-44
2022/04/27 07:53:30;;;;;;;8.80;3.00;;;;;;;22.35;34.36;102643.00;5015291;28;20117;-46
2022/04/27 07:55:55;;;;;;;9.10;3.35;;;;;;;22.05;32.97;102644.50;5015769;28;20128;-46
2022/04/27 07:58:21;;;;;;;9.75;2.63;;;;;;;19.71;37.32;102635.44;5015736;28;20391;-45
2022/04/27 08:00:46;;;;;;;8.48;2.78;;;;;;;16.01;43.06;102646.25;5014992;28;20033;-46
2022/04/27 08:03:12;;;;;;;8.07;3.35;;;;;;;16.75;42.82;102633.22;5015306;28;20026;-46
2022/04/27 08:05:37;;;;;;;6.45;2.85;;;;;;;16.95;43.43;102630.88;5015191;28;20049;-48
2022/04/27 08:08:03;;;;;;;8.25;2.90;;;;;;;16.54;44.24;102640.97;4997167;28;20053;-45
2022/04/27 08:10:29;;;;;;;6.72;2.95;;;;;;;17.02;43.55;102631.75;5014697;28;20037;-45
2022/04/27 08:12:54;;;;;;;8.88;2.70;;;;;;;17.33;43.11;102641.91;5015090;28;20450;-46
2022/04/27 08:15:22;;;;;;;9.23;3.22;;;;;;;16.01;43.69;102652.28;5014351;28;20061;-44
2022/04/27 08:17:56;;;;;;;7.85;2.70;;;;;;;14.89;46.12;102649.28;5015551;28;20098;-46
2022/04/27 08:23:16;;;;;;;7.93;2.47;;;;;;;14.35;48.01;102658.69;5015556;28;20060;-46
2022/04/27 08:25:43;;;;;;;8.40;2.55;;;;;;;14.29;46.76;102660.19;4997323;28;20563;-45
2022/04/27 08:28:09;;;;;;;7.38;2.35;;;;;;;13.94;47.35;102664.75;4996988;28;20022;-46
2022/04/27 08:30:37;;;;;;;11.18;2.40;;;;;;;13.75;47.95;102665.09;5014806;28;20049;-46
2022/04/27 08:33:04;;;;;;;7.00;2.45;;;;;;;13.38;49.14;102655.97;4996855;28;20491;-45
2022/04/27 08:35:31;;;;;;;10.45;2.70;;;;;;;13.47;49.95;102667.19;4996730;28;20037;-46
2022/04/27 08:37:56;;;;;;;11.63;2.70;;;;;;;13.04;51.89;102663.81;5013967;28;20107;-44
2022/04/27 08:40:22;;;;;;;8.25;2.50;;;;;;;12.79;52.39;102663.69;5014570;28;20456;-47
2022/04/27 08:42:49;;;;;;;5.47;2.60;;;;;;;12.95;52.04;102669.94;5014184;28;20022;-46
2022/04/27 08:45:15;;;;;;;12.15;2.10;;;;;;;12.85;51.14;102670.84;5014292;28;20083;-45
2022/04/27 08:47:41;;;;;;;6.50;2.20;;;;;;;12.81;50.62;102676.53;5014096;28;20030;-45
2022/04/27 08:50:19;;;;;;;3.90;1.90;;;;;;;12.89;51.62;102673.97;5014223;28;20037;-46
2022/04/27 08:52:47;;;;;;;8.98;2.22;;;;;;;12.79;53.39;102679.25;4996085;28;20022;-47
2022/04/27 08:55:13;;;;;;;7.53;2.10;;;;;;;12.78;51.90;102688.03;5014071;28;20032;-47
2022/04/27 08:57:39;;;;;;;8.55;2.50;;;;;;;12.83;50.64;102692.72;5014307;28;20030;-46
2022/04/27 09:00:08;;;;;;;7.30;2.10;;;;;;;12.88;51.19;102680.91;5013416;28;20048;-46
2022/04/27 09:02:35;;;;;;;3.97;2.00;;;;;;;13.16;50.32;102687.69;5013557;28;20492;-45
2022/04/27 09:05:20;;;;;;;6.88;2.20;;;;;;;13.23;50.18;102688.66;5013812;28;20040;-46
2022/04/27 09:07:50;;;;;;;6.72;2.45;;;;;;;13.02;50.13;102687.31;4996623;28;20034;-46
2022/04/27 09:10:17;;;;;;;9.45;2.30;;;;;;;13.07;51.28;102679.06;5013892;28;20026;-45
2022/04/27 09:12:50;;;;;;;10.48;2.08;;;;;;;13.24;50.49;102696.31;5013007;28;20145;-45
2022/04/27 09:15:18;;;;;;;6.38;2.38;;;;;;;12.82;50.88;102697.09;5013022;28;20112;-45
2022/04/27 09:20:47;;;;;;;7.25;2.10;;;;;;;13.15;51.36;102697.25;5013321;28;20126;-47
2022/04/27 09:23:29;;;;;;;3.88;1.80;;;;;;;13.32;50.26;102698.97;5013830;28;20025;-47
2022/04/27 09:26:00;;;;;;;6.55;1.90;;;;;;;13.40;49.56;102697.34;5013433;28;20128;-46
2022/04/27 09:28:31;;;;;;;5.60;2.15;;;;;;;13.36;50.42;102704.66;5013670;28;20025;-46
2022/04/27 09:30:58;;;;;;;6.82;2.20;;;;;;;13.27;50.15;102703.81;5014063;28;20029;-46
2022/04/27 09:33:35;;;;;;;8.18;2.20;;;;;;;13.27;49.20;102696.03;5013658;28;20496;-46
2022/04/27 09:36:02;;;;;;;6.38;2.63;;;;;;;12.94;49.54;102699.44;5013500;28;20022;-45
2022/04/27 09:38:39;;;;;;;4.97;2.05;;;;;;;13.20;49.57;102696.78;5014242;28;20040;-45
2022/04/27 09:41:04;;;;;;;6.60;2.20;;;;;;;13.18;50.05;102702.13;5013430;28;20029;-45
2022/04/27 09:43:46;;;;;;;9.48;2.20;;;;;;;12.86;49.31;102706.22;5012515;28;20099;-45
2022/04/27 09:46:25;;;;;;;10.85;2.50;;;;;;;12.68;50.85;102704.66;5013686;28;20488;-45
2022/04/27 09:49:09;;;;;;;5.60;1.92;;;;;;;13.19;50.14;102715.94;4996992;28;20018;-45
2022/04/27 09:51:36;;;;;;;5.38;1.80;;;;;;;13.42;46.38;102705.81;5013305;28;20053;-46
2022/04/27 09:54:02;;;;;;;2.95;1.52;;;;;;;13.44;45.35;102706.47;5012146;28;20115;-43
2022/04/27 09:56:37;;;;;;;4.45;1.65;;;;;;;13.41;44.60;102705.00;5011916;28;20030;-45
2022/04/27 09:59:04;;;;;;;5.07;1.50;;;;;;;13.15;44.00;102696.41;5013184;28;20033;-46
2022/04/27 10:01:35;;;;;;;3.10;1.70;;;;;;;13.07;46.81;102705.00;5012010;28;20037;-45
2022/04/27 10:04:04;;;;;;;5.07;2.10;;;;;;;13.47;45.73;102703.56;5013673;28;20053;-46
2022/04/27 10:06:30;;;;;;;14.30;2.10;;;;;;;13.53;47.67;102705.50;5013020;28;20026;-46
2022/04/27 10:09:00;;;;;;;8.27;2.30;;;;;;;13.70;46.55;102699.38;5013291;28;20108;-46
2022/04/27 10:11:29;;;;;;;6.82;2.03;;;;;;;13.48;47.17;102710.34;5012854;28;20049;-45
2022/04/27 10:13:55;;;;;;;5.43;2.08;;;;;;;13.56;46.49;102710.38;5012716;28;20057;-46
2022/04/27 10:16:22;;;;;;;6.20;2.10;;;;;;;13.67;45.54;102699.69;5012936;28;20029;-45
2022/04/27 10:18:47;;;;;;;6.20;2.20;;;;;;;13.94;45.62;102702.94;5013034;28;20057;-46
2022/04/27 10:21:14;;;;;;;5.57;2.20;;;;;;;14.26;46.41;102701.31;5013421;28;20057;-46
2022/04/27 10:23:43;;;;;;;4.00;2.13;;;;;;;14.13;45.52;102700.03;5013104;28;20041;-46
2022/04/27 10:26:17;;;;;;;6.15;2.45;;;;;;;14.69;44.22;102702.72;5012590;28;20049;-46
2022/04/27 10:28:43;;;;;;;6.28;2.50;;;;;;;14.85;43.81;102707.06;5012661;28;20464;-45
2022/04/27 10:31:09;;;;;;;6.05;2.33;;;;;;;14.91;42.18;102693.38;5012849;28;20030;-46
2022/04/27 10:33:50;;;;;;;5.57;2.20;;;;;;;14.88;44.32;102706.72;5012128;28;20028;-45
2022/04/27 10:36:35;;;;;;;4.05;1.98;;;;;;;14.14;42.75;102698.25;5013962;28;20021;-46
2022/04/27 10:39:09;;;;;;;6.38;2.20;;;;;;;14.69;42.24;102697.50;5012355;28;20026;-45
2022/04/27 10:41:35;;;;;;;4.35;2.10;;;;;;;15.60;41.72;102695.28;5013070;28;20377;-47
2022/04/27 10:44:00;;;;;;;7.53;2.20;;;;;;;15.57;40.63;102693.84;5013138;28;20032;-46
2022/04/27 10:46:43;;;;;;;4.22;1.75;;;;;;;15.13;41.46;102686.59;5012937;28;20030;-44
2022/04/27 10:49:28;;;;;;;7.88;2.20;;;;;;;15.56;41.38;102693.03;5013468;28;20040;-46
2022/04/27 10:52:07;;;;;;;7.13;1.83;;;;;;;16.05;41.14;102689.25;5012840;28;20025;-47
2022/04/27 10:54:34;;;;;;;5.63;2.13;;;;;;;15.90;40.39;102698.81;5012794;28;20030;-45
2022/04/27 10:57:15;;;;;;;4.78;2.03;;;;;;;16.00;41.95;102702.03;5013082;28;20112;-46
2022/04/27 10:59:49;;;;;;;5.47;2.30;;;;;;;15.92;39.89;102700.28;5012824;28;20034;-45
2022/04/27 11:02:41;;;;;;;5.53;2.00;;;;;;;15.60;42.35;102698.69;5016146;28;20038;-45
2022/04/27 11:05:13;;;;;;;4.90;1.98;;;;;;;15.24;41.35;102690.59;5016162;28;20160;-46
2022/04/27 11:07:44;;;;;;;7.10;2.30;;;;;;;14.83;42.54;102696.81;5016607;28;20099;-46
2022/04/27 11:10:17;;;;;;;9.52;2.15;;;;;;;14.88;42.89;102694.53;5016257;28;20397;-45
2022/04/27 11:12:50;;;;;;;7.65;2.05;;;;;;;15.22;42.65;102692.56;5016276;28;20091;-45
2022/04/27 11:15:21;;;;;;;5.38;1.90;;;;;;;15.26;41.48;102693.88;5016218;28;20042;-46
2022/04/27 11:18:00;;;;;;;4.28;1.73;;;;;;;14.63;42.18;102708.59;5016605;28;20402;-46
2022/04/27 11:20:28;;;;;;;7.70;2.10;;;;;;;14.79;42.50;102692.13;5016469;28;20064;-46
2022/04/27 11:22:54;;;;;;;5.60;2.05;;;;;;;14.84;42.44;102688.00;5016073;28;20113;-46
2022/04/27 11:25:24;;;;;;;7.10;2.42;;;;;;;15.00;43.64;102684.53;5016121;28;20105;-46
2022/04/27 11:27:49;;;;;;;8.07;2.58;;;;;;;14.94;43.44;102697.44;5016143;28;20045;-46
2022/04/27 11:30:17;;;;;;;14.52;2.67;;;;;;;14.45;46.31;102691.38;4998672;28;20053;-46
2022/04/27 11:32:45;;;;;;;19.45;2.67;;;;;;;14.72;47.10;102694.56;5016062;28;20099;-47
2022/04/27 11:35:11;;;;;;;9.52;2.10;;;;;;;14.81;47.93;102696.16;5016036;28;20507;-45
2022/04/27 11:37:37;;;;;;;9.68;2.53;;;;;;;14.29;48.00;102701.78;5015311;28;20057;-45
2022/04/27 11:40:17;;;;;;;10.52;2.50;;;;;;;14.70;49.29;102695.72;4997363;28;20030;-46
2022/04/27 11:42:44;;;;;;;8.95;2.35;;;;;;;14.92;47.82;102704.59;5016072;28;20061;-46